createdAt,value
2023-05-10T00:01:35.327Z,2.78
2023-05-10T00:04:04.048Z,3.20
2023-05-10T00:06:32.548Z,3.13
2023-05-10T00:09:00.869Z,2.97
2023-05-10T00:11:28.836Z,3.20
2023-05-10T00:13:56.839Z,2.83
2023-05-10T00:16:25.153Z,3.20
2023-05-10T00:18:54.338Z,3.30
2023-05-10T00:21:22.376Z,3.50
2023-05-10T00:23:50.489Z,3.60
2023-05-10T00:26:18.954Z,4.13
2023-05-10T00:28:46.867Z,3.60
2023-05-10T00:31:15.781Z,4.13
2023-05-10T00:33:43.749Z,3.88
2023-05-10T00:36:13.567Z,4.22
2023-05-10T00:38:42.110Z,4.28
2023-05-10T00:41:10.154Z,3.83
2023-05-10T00:43:38.153Z,3.90
2023-05-10T00:46:07.105Z,3.50
2023-05-10T00:48:36.062Z,2.67
2023-05-10T00:51:03.950Z,3.30
2023-05-10T00:53:34.716Z,2.70
2023-05-10T00:56:04.150Z,2.90
2023-05-10T00:58:32.297Z,2.75
2023-05-10T01:01:00.886Z,3.20
2023-05-10T01:03:28.679Z,3.10
2023-05-10T01:05:56.789Z,2.77
2023-05-10T01:08:24.867Z,3.00
2023-05-10T01:10:54.518Z,2.80
2023-05-10T01:13:33.889Z,3.05
2023-05-10T01:16:04.189Z,2.85
2023-05-10T01:18:35.999Z,2.80
2023-05-10T01:21:17.133Z,3.30
2023-05-10T01:24:25.236Z,3.80
2023-05-10T01:27:26.103Z,3.95
2023-05-10T01:32:57.957Z,3.87
2023-05-10T01:35:39.616Z,4.05
2023-05-10T01:38:14.854Z,4.65
2023-05-10T01:40:54.800Z,4.38
2023-05-10T01:43:28.876Z,3.60
2023-05-10T01:46:05.574Z,3.90
2023-05-10T01:48:35.770Z,3.65
2023-05-10T01:51:04.393Z,3.92
2023-05-10T01:53:35.196Z,3.83
2023-05-10T01:56:05.247Z,3.47
2023-05-10T01:58:36.397Z,3.00
2023-05-10T02:01:06.771Z,2.72
2023-05-10T02:03:38.560Z,3.03
2023-05-10T02:06:07.986Z,2.90
2023-05-10T02:08:38.751Z,3.10
2023-05-10T02:11:07.634Z,2.80
2023-05-10T02:13:38.609Z,3.05
2023-05-10T02:16:08.101Z,3.38
2023-05-10T02:18:38.415Z,3.50
2023-05-10T02:21:06.816Z,4.60
2023-05-10T02:23:36.168Z,5.67
2023-05-10T02:26:06.924Z,5.22
2023-05-10T02:28:36.006Z,4.88
2023-05-10T02:31:04.471Z,3.70
2023-05-10T02:33:34.911Z,3.92
2023-05-10T02:36:05.262Z,3.80
2023-05-10T02:38:35.246Z,3.88
2023-05-10T02:41:04.314Z,3.72
2023-05-10T02:43:34.804Z,4.20
2023-05-10T02:46:02.971Z,4.10
2023-05-10T02:48:31.172Z,3.80
2023-05-10T02:51:03.825Z,4.15
2023-05-10T02:53:35.700Z,5.30
2023-05-10T02:56:08.285Z,5.93
2023-05-10T02:58:36.749Z,5.40
2023-05-10T03:01:05.023Z,4.53
2023-05-10T03:03:33.249Z,4.10
2023-05-10T03:06:01.189Z,4.03
2023-05-10T03:08:30.332Z,3.63
2023-05-10T03:11:11.988Z,3.30
2023-05-10T03:13:50.928Z,2.80
2023-05-10T03:16:29.895Z,2.88
2023-05-10T03:19:08.650Z,3.17
2023-05-10T03:21:40.636Z,3.50
2023-05-10T03:24:12.984Z,2.97
2023-05-10T03:26:42.773Z,3.60
2023-05-10T03:29:13.123Z,3.28
2023-05-10T03:31:41.438Z,3.25
2023-05-10T03:34:10.590Z,2.63
2023-05-10T03:36:39.925Z,3.55
2023-05-10T03:39:08.123Z,2.93
2023-05-10T03:41:35.991Z,3.00
2023-05-10T03:44:05.727Z,3.35
2023-05-10T03:46:33.699Z,2.83
2023-05-10T03:49:01.936Z,2.80
2023-05-10T03:51:30.115Z,3.00
2023-05-10T03:53:58.400Z,3.45
2023-05-10T03:56:26.602Z,3.65
2023-05-10T03:58:54.479Z,3.45
2023-05-10T04:01:23.777Z,3.13
2023-05-10T04:03:51.770Z,3.33
2023-05-10T04:06:19.899Z,3.40
2023-05-10T04:08:47.768Z,3.22
2023-05-10T04:11:15.739Z,3.83
2023-05-10T04:13:44.000Z,3.60
2023-05-10T04:16:11.946Z,3.30
2023-05-10T04:18:41.233Z,3.47
2023-05-10T04:21:13.577Z,3.35
2023-05-10T04:23:41.824Z,3.60
2023-05-10T04:26:09.436Z,3.75
2023-05-10T04:28:37.137Z,4.40
2023-05-10T04:31:05.795Z,3.90
2023-05-10T04:33:34.311Z,4.80
2023-05-10T04:36:03.833Z,3.90
2023-05-10T04:38:31.732Z,4.00
2023-05-10T04:41:06.510Z,3.73
2023-05-10T04:43:34.131Z,3.92
2023-05-10T04:46:02.403Z,4.35
2023-05-10T04:48:30.142Z,4.47
2023-05-10T04:50:57.775Z,4.00
2023-05-10T04:53:27.241Z,4.23
2023-05-10T04:55:55.067Z,4.45
2023-05-10T04:58:23.069Z,4.50
2023-05-10T05:00:50.710Z,4.70
2023-05-10T05:03:18.822Z,4.43
2023-05-10T05:05:46.840Z,4.60
2023-05-10T05:08:15.186Z,4.15
2023-05-10T05:10:44.351Z,4.68
2023-05-10T05:13:12.496Z,4.95
2023-05-10T05:15:40.148Z,5.72
2023-05-10T05:18:08.113Z,6.97
2023-05-10T05:20:36.248Z,6.00
2023-05-10T05:23:03.945Z,4.80
2023-05-10T05:25:31.869Z,4.60
2023-05-10T05:28:01.033Z,5.20
2023-05-10T05:30:28.873Z,4.40
2023-05-10T05:32:56.844Z,4.72
2023-05-10T05:35:25.362Z,5.28
2023-05-10T05:37:53.291Z,5.35
2023-05-10T05:40:21.608Z,6.78
2023-05-10T05:42:49.437Z,6.10
2023-05-10T05:45:18.861Z,6.80
2023-05-10T05:47:46.907Z,5.80
2023-05-10T05:50:14.724Z,5.25
2023-05-10T05:52:42.757Z,5.22
2023-05-10T05:55:10.584Z,4.87
2023-05-10T05:57:38.414Z,4.80
2023-05-10T06:00:08.395Z,4.50
2023-05-10T06:02:37.967Z,5.38
2023-05-10T06:05:06.489Z,5.18
2023-05-10T06:07:34.634Z,5.17
2023-05-10T06:10:02.649Z,5.20
2023-05-10T06:12:30.544Z,6.35
2023-05-10T06:14:58.462Z,5.82
2023-05-10T06:17:26.594Z,5.70
2023-05-10T06:19:55.725Z,7.07
2023-05-10T06:22:23.992Z,5.90
2023-05-10T06:24:51.709Z,6.63
2023-05-10T06:27:19.569Z,6.20
2023-05-10T06:29:48.251Z,6.72
2023-05-10T06:32:17.295Z,6.97
2023-05-10T06:34:45.673Z,6.30
2023-05-10T06:37:14.996Z,7.95
2023-05-10T06:39:42.678Z,6.25
2023-05-10T06:42:10.501Z,6.28
2023-05-10T06:44:38.264Z,6.13
2023-05-10T06:47:05.983Z,6.85
2023-05-10T06:49:33.623Z,6.55
2023-05-10T06:52:01.385Z,5.22
2023-05-10T06:54:30.537Z,6.82
2023-05-10T06:56:58.175Z,7.10
2023-05-10T06:59:26.263Z,5.65
2023-05-10T07:01:55.175Z,5.65
2023-05-10T07:04:23.406Z,5.45
2023-05-10T07:06:52.204Z,5.45
2023-05-10T07:09:20.512Z,6.07
2023-05-10T07:11:49.665Z,6.00
2023-05-10T07:14:17.338Z,5.60
2023-05-10T07:16:45.560Z,5.93
2023-05-10T07:19:13.630Z,4.95
2023-05-10T07:21:43.685Z,5.13
2023-05-10T07:24:11.992Z,4.65
2023-05-10T07:26:39.605Z,5.05
2023-05-10T07:29:08.668Z,6.25
2023-05-10T07:31:36.791Z,7.65
2023-05-10T07:34:04.760Z,8.57
2023-05-10T07:36:33.437Z,9.75
2023-05-10T07:39:01.639Z,10.88
2023-05-10T07:41:29.554Z,9.93
2023-05-10T07:43:57.727Z,8.05
2023-05-10T07:46:27.332Z,7.20
2023-05-10T07:48:55.271Z,6.32
2023-05-10T07:51:23.205Z,6.35
2023-05-10T07:53:51.098Z,5.63
2023-05-10T07:56:23.253Z,5.72
2023-05-10T07:58:51.309Z,5.30
2023-05-10T08:01:19.002Z,5.18
2023-05-10T08:03:48.126Z,5.03
2023-05-10T08:06:16.580Z,4.47
2023-05-10T08:08:44.664Z,6.45
2023-05-10T08:11:12.305Z,6.47
2023-05-10T08:13:40.468Z,5.70
2023-05-10T08:16:08.531Z,4.85
2023-05-10T08:18:36.440Z,4.10
2023-05-10T08:21:05.848Z,4.68
2023-05-10T08:23:33.682Z,3.53
2023-05-10T08:26:01.588Z,0.98
2023-05-10T08:28:29.517Z,0.60
2023-05-10T08:30:57.965Z,0.38
2023-05-10T08:33:25.920Z,0.30
2023-05-10T08:35:54.973Z,0.30
2023-05-10T08:38:24.674Z,0.30
2023-05-10T08:40:57.641Z,0.30
2023-05-10T08:43:29.439Z,0.20
2023-05-10T08:45:58.652Z,0.20
2023-05-10T08:48:26.983Z,0.30
2023-05-10T08:50:57.093Z,0.20
2023-05-10T08:53:28.858Z,0.20
2023-05-10T08:55:58.084Z,0.43
2023-05-10T08:58:26.055Z,0.40
2023-05-10T09:00:54.367Z,0.30
2023-05-10T09:03:25.510Z,0.30
2023-05-10T09:05:53.552Z,0.30
2023-05-10T09:08:22.448Z,0.20
2023-05-10T09:10:52.709Z,0.50
2023-05-10T09:13:21.720Z,0.30
2023-05-10T09:15:49.893Z,0.20
2023-05-10T09:18:17.890Z,0.30
2023-05-10T09:20:46.091Z,1.02
2023-05-10T09:23:14.019Z,0.30
2023-05-10T09:25:44.031Z,0.40
2023-05-10T09:28:13.946Z,0.40
2023-05-10T09:30:41.929Z,0.20
2023-05-10T09:33:09.918Z,0.10
2023-05-10T09:35:38.461Z,0.38
2023-05-10T09:38:09.081Z,0.30
2023-05-10T09:40:41.421Z,0.22
2023-05-10T09:43:11.852Z,0.30
2023-05-10T09:45:44.149Z,0.20
2023-05-10T09:48:12.027Z,0.30
2023-05-10T09:50:43.642Z,0.20
2023-05-10T09:53:16.937Z,0.20
2023-05-10T09:55:47.701Z,0.30
2023-05-10T09:58:16.301Z,0.20
2023-05-10T10:00:49.087Z,0.60
2023-05-10T10:03:19.260Z,0.30
2023-05-10T10:05:49.443Z,0.20
2023-05-10T10:08:20.625Z,0.20
2023-05-10T10:10:51.716Z,0.32
2023-05-10T10:13:19.777Z,0.20
2023-05-10T10:15:52.392Z,0.30
2023-05-10T10:18:24.557Z,0.20
2023-05-10T10:20:52.708Z,0.20
2023-05-10T10:23:20.912Z,0.30
2023-05-10T10:25:50.036Z,0.20
2023-05-10T10:28:42.453Z,0.40
2023-05-10T10:31:23.345Z,0.30
2023-05-10T10:34:01.685Z,0.40
2023-05-10T10:36:29.955Z,0.60
2023-05-10T10:39:01.758Z,0.50
2023-05-10T10:41:32.179Z,0.30
2023-05-10T10:44:26.008Z,0.40
2023-05-10T10:47:31.078Z,0.38
2023-05-10T10:50:06.737Z,0.43
2023-05-10T10:52:36.417Z,0.40
2023-05-10T10:55:07.207Z,0.30
2023-05-10T10:57:45.153Z,0.40
2023-05-10T11:00:29.107Z,0.30
2023-05-10T11:03:01.599Z,0.60
2023-05-10T11:05:40.133Z,0.52
2023-05-10T11:08:19.439Z,0.20
2023-05-10T11:11:13.797Z,0.40
2023-05-10T11:13:43.644Z,0.43
2023-05-10T11:16:19.751Z,0.75
2023-05-10T11:19:01.328Z,1.45
2023-05-10T11:21:29.587Z,3.03
2023-05-10T11:23:59.078Z,1.60
2023-05-10T11:26:35.267Z,0.80
2023-05-10T11:29:05.875Z,0.68
2023-05-10T11:31:34.233Z,0.50
2023-05-10T11:34:04.395Z,0.57
2023-05-10T11:36:37.208Z,0.60
2023-05-10T11:39:06.373Z,0.63
2023-05-10T11:41:39.667Z,0.50
2023-05-10T11:44:11.822Z,0.50
2023-05-10T11:46:39.822Z,0.30
2023-05-10T11:49:09.807Z,0.30
2023-05-10T11:51:40.442Z,0.30
2023-05-10T11:54:10.578Z,0.38
2023-05-10T11:56:44.154Z,0.38
2023-05-10T11:59:19.488Z,0.43
2023-05-10T12:01:47.689Z,0.50
2023-05-10T12:04:17.768Z,0.47
2023-05-10T12:06:47.820Z,0.38
2023-05-10T12:09:19.265Z,0.50
2023-05-10T12:11:52.076Z,0.63
2023-05-10T12:14:22.388Z,0.80
2023-05-10T12:16:53.091Z,1.55
2023-05-10T12:19:44.727Z,1.58
2023-05-10T12:22:19.397Z,1.30
2023-05-10T12:24:48.170Z,0.80
2023-05-10T12:27:17.486Z,0.50
2023-05-10T12:29:48.748Z,1.00
2023-05-10T12:32:18.991Z,0.60
2023-05-10T12:34:48.856Z,1.17
2023-05-10T12:37:17.472Z,1.83
2023-05-10T12:39:47.494Z,0.80
2023-05-10T12:42:16.342Z,0.50
2023-05-10T12:44:44.198Z,0.60
2023-05-10T12:47:12.410Z,0.60
2023-05-10T12:49:43.487Z,0.60
2023-05-10T12:52:13.069Z,0.52
2023-05-10T12:54:45.697Z,0.50
2023-05-10T12:57:14.876Z,0.40
2023-05-10T12:59:42.764Z,0.45
2023-05-10T13:02:11.002Z,0.37
2023-05-10T13:04:41.046Z,0.40
2023-05-10T13:07:09.126Z,0.70
2023-05-10T13:09:38.385Z,0.65
2023-05-10T13:12:08.114Z,0.52
2023-05-10T13:14:37.217Z,0.60
2023-05-10T13:17:05.282Z,0.60
2023-05-10T13:19:33.264Z,0.60
2023-05-10T13:22:01.626Z,0.88
2023-05-10T13:24:31.446Z,0.90
2023-05-10T13:27:02.282Z,0.60
2023-05-10T13:29:31.340Z,1.00
2023-05-10T13:31:59.746Z,1.40
2023-05-10T13:34:27.953Z,1.05
2023-05-10T13:36:57.116Z,0.90
2023-05-10T13:39:25.336Z,0.40
2023-05-10T13:41:55.780Z,0.73
2023-05-10T13:44:25.141Z,0.65
2023-05-10T13:46:53.140Z,0.50
2023-05-10T13:49:21.781Z,0.50
2023-05-10T13:51:49.935Z,0.50
2023-05-10T13:54:20.497Z,0.80
2023-05-10T13:56:50.125Z,6.35
2023-05-10T13:59:18.071Z,8.00
2023-05-10T14:01:47.325Z,6.82
2023-05-10T14:04:15.388Z,4.13
2023-05-10T14:06:43.310Z,2.50
2023-05-10T14:09:11.359Z,4.03
2023-05-10T14:11:42.836Z,4.45
2023-05-10T14:14:11.117Z,4.20
2023-05-10T14:16:39.459Z,4.00
2023-05-10T14:19:08.861Z,2.42
2023-05-10T14:21:37.116Z,1.80
2023-05-10T14:24:06.804Z,0.52
2023-05-10T14:26:35.288Z,0.40
2023-05-10T14:29:03.469Z,0.40
2023-05-10T14:31:31.894Z,0.30
2023-05-10T14:34:00.256Z,1.08
2023-05-10T14:36:30.347Z,2.10
2023-05-10T14:38:59.254Z,1.20
2023-05-10T14:41:27.176Z,0.67
2023-05-10T14:43:55.886Z,0.70
2023-05-10T14:46:23.567Z,1.15
2023-05-10T14:48:51.418Z,0.35
2023-05-10T14:51:23.247Z,0.65
2023-05-10T14:53:52.742Z,0.40
2023-05-10T14:56:22.161Z,0.38
2023-05-10T14:58:49.845Z,0.60
2023-05-10T15:01:17.921Z,0.47
2023-05-10T15:03:46.442Z,0.45
2023-05-10T15:06:16.390Z,0.50
2023-05-10T15:08:44.314Z,0.40
2023-05-10T15:11:13.781Z,0.30
2023-05-10T15:13:41.427Z,0.70
2023-05-10T15:16:09.315Z,0.63
2023-05-10T15:18:37.339Z,0.50
2023-05-10T15:21:05.275Z,0.90
2023-05-10T15:23:33.207Z,0.68
2023-05-10T15:26:01.053Z,1.92
2023-05-10T15:28:30.592Z,1.10
2023-05-10T15:30:59.544Z,0.80
2023-05-10T15:33:28.796Z,0.57
2023-05-10T15:35:57.268Z,0.60
2023-05-10T15:38:25.085Z,1.05
2023-05-10T15:40:53.826Z,1.00
2023-05-10T15:43:21.750Z,1.10
2023-05-10T15:45:51.540Z,0.65
2023-05-10T15:48:19.167Z,1.10
2023-05-10T15:50:47.268Z,1.00
2023-05-10T15:53:16.672Z,1.08
2023-05-10T15:55:45.126Z,1.20
2023-05-10T15:58:13.045Z,1.20
2023-05-10T16:00:41.812Z,1.30
2023-05-10T16:03:11.051Z,0.90
2023-05-10T16:05:39.224Z,3.33
2023-05-10T16:08:07.211Z,3.57
2023-05-10T16:10:35.171Z,1.60
2023-05-10T16:13:04.016Z,1.00
2023-05-10T16:15:31.796Z,0.65
2023-05-10T16:17:59.798Z,0.70
2023-05-10T16:20:30.211Z,0.80
2023-05-10T16:22:58.122Z,0.90
2023-05-10T16:25:26.339Z,1.05
2023-05-10T16:27:54.282Z,0.90
2023-05-10T16:30:23.626Z,0.70
2023-05-10T16:32:51.846Z,0.53
2023-05-10T16:35:19.731Z,0.50
2023-05-10T16:37:49.262Z,0.50
2023-05-10T16:40:17.441Z,0.40
2023-05-10T16:42:45.383Z,0.55
2023-05-10T16:45:13.614Z,0.60
2023-05-10T16:47:43.063Z,0.70
2023-05-10T16:50:11.546Z,0.50
2023-05-10T16:52:39.581Z,0.70
2023-05-10T16:55:09.596Z,0.68
2023-05-10T16:57:37.180Z,0.40
2023-05-10T17:00:05.709Z,0.30
2023-05-10T17:02:33.395Z,0.47
2023-05-10T17:05:01.282Z,0.85
2023-05-10T17:07:29.340Z,1.48
2023-05-10T17:09:59.195Z,1.50
2023-05-10T17:12:28.360Z,1.40
2023-05-10T17:14:56.286Z,1.70
2023-05-10T17:17:25.160Z,2.92
2023-05-10T17:19:53.095Z,2.63
2023-05-10T17:22:21.064Z,1.87
2023-05-10T17:24:49.023Z,1.17
2023-05-10T17:27:16.676Z,1.20
2023-05-10T17:29:45.849Z,1.80
2023-05-10T17:32:13.446Z,2.28
2023-05-10T17:34:41.384Z,3.00
2023-05-10T17:37:10.245Z,2.55
2023-05-10T17:39:40.007Z,2.63
2023-05-10T17:42:08.529Z,3.10
2023-05-10T17:44:36.510Z,3.03
2023-05-10T17:47:06.322Z,4.30
2023-05-10T17:49:35.146Z,3.10
2023-05-10T17:52:03.484Z,3.58
2023-05-10T17:54:31.032Z,4.32
2023-05-10T17:57:00.966Z,3.50
2023-05-10T17:59:28.732Z,3.30
2023-05-10T18:01:56.320Z,1.80
2023-05-10T18:04:26.056Z,1.50
2023-05-10T18:07:00.738Z,1.20
2023-05-10T18:09:28.955Z,1.23
2023-05-10T18:11:56.558Z,1.00
2023-05-10T18:14:39.181Z,2.10
2023-05-10T18:17:08.986Z,2.70
2023-05-10T18:19:38.170Z,2.25
2023-05-10T18:22:06.995Z,2.50
2023-05-10T18:24:39.491Z,3.40
2023-05-10T18:27:07.834Z,3.20
2023-05-10T18:29:36.140Z,2.70
2023-05-10T18:32:04.961Z,2.40
2023-05-10T18:34:32.864Z,4.95
2023-05-10T18:37:02.471Z,6.10
2023-05-10T18:39:30.979Z,7.93
2023-05-10T18:41:58.594Z,14.30
2023-05-10T18:44:27.127Z,4.32
2023-05-10T18:46:55.473Z,5.05
2023-05-10T18:49:24.094Z,2.60
2023-05-10T18:51:52.221Z,2.13
2023-05-10T18:54:21.467Z,2.05
2023-05-10T18:56:49.891Z,1.50
2023-05-10T18:59:17.753Z,1.60
2023-05-10T19:01:45.529Z,1.57
2023-05-10T19:04:13.664Z,1.30
2023-05-10T19:06:42.330Z,1.40
2023-05-10T19:09:10.683Z,1.42
2023-05-10T19:11:39.805Z,2.60
2023-05-10T19:14:07.667Z,2.43
2023-05-10T19:16:35.971Z,2.40
2023-05-10T19:19:03.835Z,2.13
2023-05-10T19:21:32.702Z,1.98
2023-05-10T19:24:01.485Z,3.05
2023-05-10T19:26:29.540Z,3.00
2023-05-10T19:28:58.881Z,2.80
2023-05-10T19:31:26.552Z,2.58
2023-05-10T19:33:54.416Z,2.00
2023-05-10T19:36:22.222Z,1.90
2023-05-10T19:38:50.000Z,1.97
2023-05-10T19:41:18.590Z,2.20
2023-05-10T19:43:48.193Z,2.58
2023-05-10T19:46:18.686Z,2.47
2023-05-10T19:48:49.352Z,2.70
2023-05-10T19:51:16.961Z,2.67
2023-05-10T19:53:45.257Z,2.45
2023-05-10T19:56:14.237Z,1.90
2023-05-10T19:58:42.083Z,2.30
2023-05-10T20:01:09.928Z,2.55
2023-05-10T20:03:39.004Z,2.10
2023-05-10T20:06:06.802Z,1.85
2023-05-10T20:08:35.149Z,2.17
2023-05-10T20:11:04.040Z,1.90
2023-05-10T20:13:31.876Z,1.70
2023-05-10T20:16:00.848Z,1.60
2023-05-10T20:18:29.159Z,1.98
2023-05-10T20:21:00.444Z,1.65
2023-05-10T20:23:28.718Z,1.77
2023-05-10T20:25:56.628Z,1.45
2023-05-10T20:28:27.124Z,1.70
2023-05-10T20:30:56.189Z,1.60
2023-05-10T20:33:24.211Z,2.15
2023-05-10T20:35:52.567Z,2.13
2023-05-10T20:38:22.207Z,2.10
2023-05-10T20:40:50.675Z,1.67
2023-05-10T20:43:21.696Z,2.00
2023-05-10T20:45:54.921Z,1.70
2023-05-10T20:48:25.542Z,1.35
2023-05-10T20:50:53.599Z,1.55
2023-05-10T20:53:23.485Z,1.90
2023-05-10T20:55:51.294Z,2.10
2023-05-10T20:58:19.469Z,1.95
2023-05-10T21:00:47.234Z,2.05
2023-05-10T21:03:15.866Z,1.67
2023-05-10T21:05:43.661Z,1.93
2023-05-10T21:08:11.606Z,1.63
2023-05-10T21:10:41.221Z,1.73
2023-05-10T21:13:09.120Z,1.83
2023-05-10T21:15:36.918Z,1.65
2023-05-10T21:18:05.652Z,1.50
2023-05-10T21:20:33.560Z,1.70
2023-05-10T21:23:01.761Z,1.52
2023-05-10T21:25:29.662Z,1.63
2023-05-10T21:27:59.376Z,1.73
2023-05-10T21:30:27.299Z,1.80
2023-05-10T21:32:59.798Z,1.83
2023-05-10T21:35:28.324Z,2.00
2023-05-10T21:37:56.352Z,2.15
2023-05-10T21:40:24.670Z,1.98
2023-05-10T21:42:53.493Z,2.03
2023-05-10T21:45:22.641Z,2.20
2023-05-10T21:47:50.416Z,2.05
2023-05-10T21:50:18.831Z,2.40
2023-05-10T21:52:46.782Z,2.47
2023-05-10T21:55:14.495Z,2.10
2023-05-10T21:57:46.497Z,2.10
2023-05-10T22:00:16.265Z,2.40
2023-05-10T22:02:45.665Z,2.10
2023-05-10T22:05:13.473Z,2.50
2023-05-10T22:07:41.752Z,2.33
2023-05-10T22:10:10.318Z,2.55
2023-05-10T22:12:37.964Z,2.30
2023-05-10T22:15:10.430Z,2.33
2023-05-10T22:17:39.153Z,2.47
2023-05-10T22:20:10.250Z,2.47
2023-05-10T22:22:38.166Z,2.67
2023-05-10T22:25:07.099Z,2.97
2023-05-10T22:27:35.115Z,2.35
2023-05-10T22:30:03.177Z,2.45
2023-05-10T22:32:32.363Z,2.03
2023-05-10T22:35:00.268Z,2.40
2023-05-10T22:37:29.683Z,2.78
2023-05-10T22:39:57.358Z,2.28
2023-05-10T22:42:25.074Z,2.42
2023-05-10T22:44:52.856Z,3.30
2023-05-10T22:47:20.692Z,2.72
2023-05-10T22:49:48.421Z,3.35
2023-05-10T22:52:16.217Z,3.30
2023-05-10T22:54:45.229Z,3.33
2023-05-10T22:57:13.191Z,2.83
2023-05-10T22:59:40.784Z,3.08
2023-05-10T23:02:08.603Z,3.05
2023-05-10T23:04:37.051Z,3.10
2023-05-10T23:07:05.064Z,3.22
2023-05-10T23:09:32.624Z,3.20
2023-05-10T23:12:02.493Z,2.80
2023-05-10T23:14:30.252Z,3.20
2023-05-10T23:16:57.857Z,3.75
2023-05-10T23:19:25.773Z,3.40
2023-05-10T23:21:53.420Z,3.37
2023-05-10T23:24:20.996Z,3.47
2023-05-10T23:26:48.739Z,3.13
2023-05-10T23:29:17.812Z,3.03
2023-05-10T23:31:47.879Z,3.67
2023-05-10T23:34:15.828Z,3.43
2023-05-10T23:36:44.182Z,3.95
2023-05-10T23:39:12.075Z,3.92
2023-05-10T23:41:40.067Z,3.58
2023-05-10T23:44:07.728Z,3.65
2023-05-10T23:46:36.723Z,3.70
2023-05-10T23:49:04.468Z,3.63
2023-05-10T23:51:32.989Z,3.35
2023-05-10T23:54:00.635Z,3.03
2023-05-10T23:56:28.327Z,3.03
2023-05-10T23:58:56.255Z,3.00
